sensor_id;sensor_type;location;lat;lon;timestamp;temperature;humidity
22161;DHT22;49035;48.812;11.762;2022-11-20T00:00:54;1.70;99.90
22161;DHT22;49035;48.812;11.762;2022-11-20T00:03:19;1.80;99.90
22161;DHT22;49035;48.812;11.762;2022-11-20T00:05:45;1.60;99.90
22161;DHT22;49035;48.812;11.762;2022-11-20T00:08:11;1.60;99.90
22161;DHT22;49035;48.812;11.762;2022-11-20T00:10:37;1.60;99.90
22161;DHT22;49035;48.812;11.762;2022-11-20T00:13:07;1.50;99.90
22161;DHT22;49035;48.812;11.762;2022-11-20T00:15:33;1.50;99.90
22161;DHT22;49035;48.812;11.762;2022-11-20T00:17:58;1.50;99.90
22161;DHT22;49035;48.812;11.762;2022-11-20T00:20:24;1.40;99.90
22161;DHT22;49035;48.812;11.762;2022-11-20T00:22:50;1.50;99.90
22161;DHT22;49035;48.812;11.762;2022-11-20T00:25:16;1.40;99.90
22161;DHT22;49035;48.812;11.762;2022-11-20T00:27:42;1.50;99.90
22161;DHT22;49035;48.812;11.762;2022-11-20T00:30:08;1.60;99.90
22161;DHT22;49035;48.812;11.762;2022-11-20T00:32:33;1.60;99.90
22161;DHT22;49035;48.812;11.762;2022-11-20T00:34:59;1.60;99.90
22161;DHT22;49035;48.812;11.762;2022-11-20T00:37:25;1.60;99.90
22161;DHT22;49035;48.812;11.762;2022-11-20T00:39:50;1.50;99.90
22161;DHT22;49035;48.812;11.762;2022-11-20T00:42:16;1.40;99.90
22161;DHT22;49035;48.812;11.762;2022-11-20T00:44:41;1.40;99.90
22161;DHT22;49035;48.812;11.762;2022-11-20T00:47:07;1.50;99.90
22161;DHT22;49035;48.812;11.762;2022-11-20T00:49:32;1.50;99.90
22161;DHT22;49035;48.812;11.762;2022-11-20T00:51:59;1.70;99.90
22161;DHT22;49035;48.812;11.762;2022-11-20T00:54:25;1.70;99.90
22161;DHT22;49035;48.812;11.762;2022-11-20T00:56:53;1.60;99.90
22161;DHT22;49035;48.812;11.762;2022-11-20T00:59:18;1.70;99.90
22161;DHT22;49035;48.812;11.762;2022-11-20T01:01:44;1.60;99.90
22161;DHT22;49035;48.812;11.762;2022-11-20T01:04:09;1.50;99.90
22161;DHT22;49035;48.812;11.762;2022-11-20T01:06:36;1.50;99.90
22161;DHT22;49035;48.812;11.762;2022-11-20T01:09:07;1.70;99.90
22161;DHT22;49035;48.812;11.762;2022-11-20T01:11:35;1.70;99.90
22161;DHT22;49035;48.812;11.762;2022-11-20T01:14:04;1.80;99.90
22161;DHT22;49035;48.812;11.762;2022-11-20T01:16:35;1.80;99.90
22161;DHT22;49035;48.812;11.762;2022-11-20T01:19:03;1.70;99.90
22161;DHT22;49035;48.812;11.762;2022-11-20T01:21:35;1.60;99.90
22161;DHT22;49035;48.812;11.762;2022-11-20T01:24:04;1.60;99.90
22161;DHT22;49035;48.812;11.762;2022-11-20T01:26:32;1.50;99.90
22161;DHT22;49035;48.812;11.762;2022-11-20T01:28:58;1.50;99.90
22161;DHT22;49035;48.812;11.762;2022-11-20T01:31:29;1.50;99.90
22161;DHT22;49035;48.812;11.762;2022-11-20T01:33:58;1.50;99.90
22161;DHT22;49035;48.812;11.762;2022-11-20T01:36:27;1.50;99.90
22161;DHT22;49035;48.812;11.762;2022-11-20T01:39:00;1.40;99.90
22161;DHT22;49035;48.812;11.762;2022-11-20T01:41:29;1.40;99.90
22161;DHT22;49035;48.812;11.762;2022-11-20T01:44:16;1.40;99.90
22161;DHT22;49035;48.812;11.762;2022-11-20T01:46:58;1.40;99.90
22161;DHT22;49035;48.812;11.762;2022-11-20T01:49:26;1.50;99.90
22161;DHT22;49035;48.812;11.762;2022-11-20T01:52:03;1.50;99.90
22161;DHT22;49035;48.812;11.762;2022-11-20T01:54:45;1.50;99.90
22161;DHT22;49035;48.812;11.762;2022-11-20T01:57:13;1.50;99.90
22161;DHT22;49035;48.812;11.762;2022-11-20T01:59:44;1.60;99.90
22161;DHT22;49035;48.812;11.762;2022-11-20T02:02:12;1.60;99.90
22161;DHT22;49035;48.812;11.762;2022-11-20T02:04:38;1.70;99.90
22161;DHT22;49035;48.812;11.762;2022-11-20T02:07:05;1.70;99.90
22161;DHT22;49035;48.812;11.762;2022-11-20T02:09:31;1.70;99.90
22161;DHT22;49035;48.812;11.762;2022-11-20T02:11:57;1.80;99.90
22161;DHT22;49035;48.812;11.762;2022-11-20T02:14:24;1.80;99.90
22161;DHT22;49035;48.812;11.762;2022-11-20T02:16:50;1.80;99.90
22161;DHT22;49035;48.812;11.762;2022-11-20T02:22:22;1.80;99.90
22161;DHT22;49035;48.812;11.762;2022-11-20T02:24:50;1.90;99.90
22161;DHT22;49035;48.812;11.762;2022-11-20T02:27:17;1.80;99.90
22161;DHT22;49035;48.812;11.762;2022-11-20T02:29:56;1.80;99.90
22161;DHT22;49035;48.812;11.762;2022-11-20T02:32:25;1.80;99.90
22161;DHT22;49035;48.812;11.762;2022-11-20T02:34:51;1.80;99.90
22161;DHT22;49035;48.812;11.762;2022-11-20T02:37:17;1.80;99.90
22161;DHT22;49035;48.812;11.762;2022-11-20T02:39:44;1.70;99.90
22161;DHT22;49035;48.812;11.762;2022-11-20T02:42:11;1.70;99.90
22161;DHT22;49035;48.812;11.762;2022-11-20T02:44:37;1.80;99.90
22161;DHT22;49035;48.812;11.762;2022-11-20T02:47:02;1.70;99.90
22161;DHT22;49035;48.812;11.762;2022-11-20T02:49:28;1.70;99.90
22161;DHT22;49035;48.812;11.762;2022-11-20T02:51:54;1.80;99.90
22161;DHT22;49035;48.812;11.762;2022-11-20T02:54:19;1.80;99.90
22161;DHT22;49035;48.812;11.762;2022-11-20T02:56:45;1.80;99.90
22161;DHT22;49035;48.812;11.762;2022-11-20T02:59:10;1.80;99.90
22161;DHT22;49035;48.812;11.762;2022-11-20T03:01:36;1.80;99.90
22161;DHT22;49035;48.812;11.762;2022-11-20T03:04:02;1.80;99.90
22161;DHT22;49035;48.812;11.762;2022-11-20T03:06:28;1.80;99.90
22161;DHT22;49035;48.812;11.762;2022-11-20T03:08:53;1.90;99.90
22161;DHT22;49035;48.812;11.762;2022-11-20T03:11:19;1.90;99.90
22161;DHT22;49035;48.812;11.762;2022-11-20T03:13:45;1.90;99.90
22161;DHT22;49035;48.812;11.762;2022-11-20T03:16:16;1.90;99.90
22161;DHT22;49035;48.812;11.762;2022-11-20T03:18:42;1.90;99.90
22161;DHT22;49035;48.812;11.762;2022-11-20T03:21:09;1.90;99.90
22161;DHT22;49035;48.812;11.762;2022-11-20T03:23:36;2.10;99.90
22161;DHT22;49035;48.812;11.762;2022-11-20T03:26:16;2.00;99.90
22161;DHT22;49035;48.812;11.762;2022-11-20T03:28:47;2.10;99.90
22161;DHT22;49035;48.812;11.762;2022-11-20T03:31:14;2.00;99.90
22161;DHT22;49035;48.812;11.762;2022-11-20T03:33:41;2.00;99.90
22161;DHT22;49035;48.812;11.762;2022-11-20T03:36:09;2.00;99.90
22161;DHT22;49035;48.812;11.762;2022-11-20T03:38:35;2.00;99.90
22161;DHT22;49035;48.812;11.762;2022-11-20T03:41:02;2.10;99.90
22161;DHT22;49035;48.812;11.762;2022-11-20T03:43:29;2.00;99.90
22161;DHT22;49035;48.812;11.762;2022-11-20T03:45:54;2.30;99.90
22161;DHT22;49035;48.812;11.762;2022-11-20T03:48:20;2.30;99.90
22161;DHT22;49035;48.812;11.762;2022-11-20T03:50:46;2.30;99.90
22161;DHT22;49035;48.812;11.762;2022-11-20T03:53:13;2.20;99.90
22161;DHT22;49035;48.812;11.762;2022-11-20T03:55:39;2.20;99.90
22161;DHT22;49035;48.812;11.762;2022-11-20T03:58:05;2.30;99.90
22161;DHT22;49035;48.812;11.762;2022-11-20T04:00:30;2.30;99.90
22161;DHT22;49035;48.812;11.762;2022-11-20T04:03:02;2.20;99.90
22161;DHT22;49035;48.812;11.762;2022-11-20T04:05:28;2.20;99.90
22161;DHT22;49035;48.812;11.762;2022-11-20T04:07:54;2.20;99.90
22161;DHT22;49035;48.812;11.762;2022-11-20T04:10:19;2.10;99.90
22161;DHT22;49035;48.812;11.762;2022-11-20T04:12:45;2.20;99.90
22161;DHT22;49035;48.812;11.762;2022-11-20T04:15:11;2.20;99.90
22161;DHT22;49035;48.812;11.762;2022-11-20T04:17:37;2.10;99.90
22161;DHT22;49035;48.812;11.762;2022-11-20T04:20:03;2.10;99.90
22161;DHT22;49035;48.812;11.762;2022-11-20T04:22:28;2.10;99.90
22161;DHT22;49035;48.812;11.762;2022-11-20T04:24:54;2.30;99.90
22161;DHT22;49035;48.812;11.762;2022-11-20T04:27:20;2.30;99.90
22161;DHT22;49035;48.812;11.762;2022-11-20T04:29:45;2.30;99.90
22161;DHT22;49035;48.812;11.762;2022-11-20T04:32:11;2.30;99.90
22161;DHT22;49035;48.812;11.762;2022-11-20T04:34:36;2.40;99.90
22161;DHT22;49035;48.812;11.762;2022-11-20T04:37:02;2.30;99.90
22161;DHT22;49035;48.812;11.762;2022-11-20T04:39:27;2.30;99.90
22161;DHT22;49035;48.812;11.762;2022-11-20T04:41:53;2.20;99.90
22161;DHT22;49035;48.812;11.762;2022-11-20T04:44:38;2.40;99.90
22161;DHT22;49035;48.812;11.762;2022-11-20T04:47:04;2.30;99.90
22161;DHT22;49035;48.812;11.762;2022-11-20T04:49:30;2.30;99.90
22161;DHT22;49035;48.812;11.762;2022-11-20T04:51:57;2.30;99.90
22161;DHT22;49035;48.812;11.762;2022-11-20T04:54:22;2.50;99.90
22161;DHT22;49035;48.812;11.762;2022-11-20T04:56:49;2.50;99.90
22161;DHT22;49035;48.812;11.762;2022-11-20T04:59:14;2.40;99.90
22161;DHT22;49035;48.812;11.762;2022-11-20T05:01:40;2.40;99.90
22161;DHT22;49035;48.812;11.762;2022-11-20T05:04:06;2.30;99.90
22161;DHT22;49035;48.812;11.762;2022-11-20T05:06:32;2.30;99.90
22161;DHT22;49035;48.812;11.762;2022-11-20T05:08:58;2.30;99.90
22161;DHT22;49035;48.812;11.762;2022-11-20T05:11:23;2.30;99.90
22161;DHT22;49035;48.812;11.762;2022-11-20T05:13:50;2.30;99.90
22161;DHT22;49035;48.812;11.762;2022-11-20T05:16:21;2.30;99.90
22161;DHT22;49035;48.812;11.762;2022-11-20T05:18:48;2.30;99.90
22161;DHT22;49035;48.812;11.762;2022-11-20T05:21:14;2.20;99.90
22161;DHT22;49035;48.812;11.762;2022-11-20T05:23:40;2.40;99.90
22161;DHT22;49035;48.812;11.762;2022-11-20T05:26:13;2.50;99.90
22161;DHT22;49035;48.812;11.762;2022-11-20T05:28:39;2.50;99.90
22161;DHT22;49035;48.812;11.762;2022-11-20T05:31:10;2.40;99.90
22161;DHT22;49035;48.812;11.762;2022-11-20T05:33:39;2.40;99.90
22161;DHT22;49035;48.812;11.762;2022-11-20T05:36:05;2.40;99.90
22161;DHT22;49035;48.812;11.762;2022-11-20T05:38:31;2.40;99.90
22161;DHT22;49035;48.812;11.762;2022-11-20T05:41:08;2.40;99.90
22161;DHT22;49035;48.812;11.762;2022-11-20T05:43:35;2.50;99.90
22161;DHT22;49035;48.812;11.762;2022-11-20T05:46:01;2.50;99.90
22161;DHT22;49035;48.812;11.762;2022-11-20T05:48:27;2.50;99.90
22161;DHT22;49035;48.812;11.762;2022-11-20T05:50:53;2.50;99.90
22161;DHT22;49035;48.812;11.762;2022-11-20T05:53:18;2.50;99.90
22161;DHT22;49035;48.812;11.762;2022-11-20T05:55:44;2.70;99.90
22161;DHT22;49035;48.812;11.762;2022-11-20T05:58:10;2.70;99.90
22161;DHT22;49035;48.812;11.762;2022-11-20T06:00:35;2.70;99.90
22161;DHT22;49035;48.812;11.762;2022-11-20T06:03:01;2.70;99.90
22161;DHT22;49035;48.812;11.762;2022-11-20T06:05:27;2.70;99.90
22161;DHT22;49035;48.812;11.762;2022-11-20T06:07:52;2.70;99.90
22161;DHT22;49035;48.812;11.762;2022-11-20T06:10:18;2.70;99.90
22161;DHT22;49035;48.812;11.762;2022-11-20T06:12:44;2.70;99.90
22161;DHT22;49035;48.812;11.762;2022-11-20T06:15:09;2.70;99.90
22161;DHT22;49035;48.812;11.762;2022-11-20T06:17:35;2.70;99.90
22161;DHT22;49035;48.812;11.762;2022-11-20T06:20:01;2.70;99.90
22161;DHT22;49035;48.812;11.762;2022-11-20T06:22:26;2.70;99.90
22161;DHT22;49035;48.812;11.762;2022-11-20T06:24:52;2.70;99.90
22161;DHT22;49035;48.812;11.762;2022-11-20T06:27:17;2.80;99.90
22161;DHT22;49035;48.812;11.762;2022-11-20T06:29:43;2.80;99.90
22161;DHT22;49035;48.812;11.762;2022-11-20T06:32:09;2.80;99.90
22161;DHT22;49035;48.812;11.762;2022-11-20T06:34:34;2.80;99.90
22161;DHT22;49035;48.812;11.762;2022-11-20T06:37:00;2.90;99.90
22161;DHT22;49035;48.812;11.762;2022-11-20T06:39:25;2.90;99.90
22161;DHT22;49035;48.812;11.762;2022-11-20T06:41:51;2.90;99.90
22161;DHT22;49035;48.812;11.762;2022-11-20T06:44:16;2.90;99.90
22161;DHT22;49035;48.812;11.762;2022-11-20T06:46:42;2.90;99.90
22161;DHT22;49035;48.812;11.762;2022-11-20T06:49:08;3.00;99.90
22161;DHT22;49035;48.812;11.762;2022-11-20T06:51:33;3.10;99.90
22161;DHT22;49035;48.812;11.762;2022-11-20T06:53:59;3.10;99.90
22161;DHT22;49035;48.812;11.762;2022-11-20T06:56:26;3.20;99.90
22161;DHT22;49035;48.812;11.762;2022-11-20T06:58:52;3.20;99.90
22161;DHT22;49035;48.812;11.762;2022-11-20T07:01:17;3.20;99.90
22161;DHT22;49035;48.812;11.762;2022-11-20T07:03:43;3.30;99.90
22161;DHT22;49035;48.812;11.762;2022-11-20T07:06:09;3.40;99.90
22161;DHT22;49035;48.812;11.762;2022-11-20T07:08:35;3.50;99.90
22161;DHT22;49035;48.812;11.762;2022-11-20T07:11:04;3.70;99.90
22161;DHT22;49035;48.812;11.762;2022-11-20T07:13:30;3.70;99.90
22161;DHT22;49035;48.812;11.762;2022-11-20T07:16:00;3.80;99.90
22161;DHT22;49035;48.812;11.762;2022-11-20T07:18:26;3.90;99.90
22161;DHT22;49035;48.812;11.762;2022-11-20T07:20:52;4.00;99.90
22161;DHT22;49035;48.812;11.762;2022-11-20T07:23:17;4.10;99.90
22161;DHT22;49035;48.812;11.762;2022-11-20T07:25:43;4.20;99.90
22161;DHT22;49035;48.812;11.762;2022-11-20T07:28:08;4.20;99.90
22161;DHT22;49035;48.812;11.762;2022-11-20T07:30:35;4.20;99.90
22161;DHT22;49035;48.812;11.762;2022-11-20T07:33:01;4.20;99.90
22161;DHT22;49035;48.812;11.762;2022-11-20T07:35:27;4.20;99.90
22161;DHT22;49035;48.812;11.762;2022-11-20T07:37:52;4.30;99.90
22161;DHT22;49035;48.812;11.762;2022-11-20T07:40:18;4.30;99.90
22161;DHT22;49035;48.812;11.762;2022-11-20T07:42:49;4.40;99.90
22161;DHT22;49035;48.812;11.762;2022-11-20T07:45:16;4.40;99.90
22161;DHT22;49035;48.812;11.762;2022-11-20T07:47:41;4.50;99.90
22161;DHT22;49035;48.812;11.762;2022-11-20T07:50:07;4.40;99.90
22161;DHT22;49035;48.812;11.762;2022-11-20T07:52:33;4.50;99.90
22161;DHT22;49035;48.812;11.762;2022-11-20T07:54:58;4.60;99.90
22161;DHT22;49035;48.812;11.762;2022-11-20T07:57:24;4.60;99.90
22161;DHT22;49035;48.812;11.762;2022-11-20T07:59:49;4.70;99.90
22161;DHT22;49035;48.812;11.762;2022-11-20T08:02:15;4.70;99.90
22161;DHT22;49035;48.812;11.762;2022-11-20T08:04:40;4.70;99.90
22161;DHT22;49035;48.812;11.762;2022-11-20T08:07:06;4.80;99.90
22161;DHT22;49035;48.812;11.762;2022-11-20T08:09:32;4.90;99.90
22161;DHT22;49035;48.812;11.762;2022-11-20T08:11:58;4.90;99.90
22161;DHT22;49035;48.812;11.762;2022-11-20T08:14:42;5.10;99.90
22161;DHT22;49035;48.812;11.762;2022-11-20T08:17:07;5.20;99.90
22161;DHT22;49035;48.812;11.762;2022-11-20T08:19:33;5.20;99.90
22161;DHT22;49035;48.812;11.762;2022-11-20T08:21:58;5.30;99.90
22161;DHT22;49035;48.812;11.762;2022-11-20T08:24:24;5.30;99.90
22161;DHT22;49035;48.812;11.762;2022-11-20T08:26:52;5.30;99.90
22161;DHT22;49035;48.812;11.762;2022-11-20T08:29:18;5.40;99.90
22161;DHT22;49035;48.812;11.762;2022-11-20T08:31:43;5.40;99.90
22161;DHT22;49035;48.812;11.762;2022-11-20T08:34:09;5.40;99.90
22161;DHT22;49035;48.812;11.762;2022-11-20T08:36:37;5.40;99.90
22161;DHT22;49035;48.812;11.762;2022-11-20T08:39:03;5.40;99.90
22161;DHT22;49035;48.812;11.762;2022-11-20T08:41:29;5.50;99.90
22161;DHT22;49035;48.812;11.762;2022-11-20T08:44:03;5.40;99.90
22161;DHT22;49035;48.812;11.762;2022-11-20T08:46:35;5.40;99.90
22161;DHT22;49035;48.812;11.762;2022-11-20T08:49:03;5.40;99.90
22161;DHT22;49035;48.812;11.762;2022-11-20T08:51:29;5.50;99.90
22161;DHT22;49035;48.812;11.762;2022-11-20T08:53:55;5.50;99.90
22161;DHT22;49035;48.812;11.762;2022-11-20T08:56:20;5.60;99.90
22161;DHT22;49035;48.812;11.762;2022-11-20T08:58:46;5.70;99.90
22161;DHT22;49035;48.812;11.762;2022-11-20T09:01:12;5.70;99.90
22161;DHT22;49035;48.812;11.762;2022-11-20T09:03:37;5.70;99.90
22161;DHT22;49035;48.812;11.762;2022-11-20T09:06:06;5.80;99.90
22161;DHT22;49035;48.812;11.762;2022-11-20T09:08:32;5.80;99.90
22161;DHT22;49035;48.812;11.762;2022-11-20T09:10:58;5.80;99.90
22161;DHT22;49035;48.812;11.762;2022-11-20T09:13:27;5.80;99.90
22161;DHT22;49035;48.812;11.762;2022-11-20T09:15:57;5.90;99.90
22161;DHT22;49035;48.812;11.762;2022-11-20T09:18:24;5.90;99.90
22161;DHT22;49035;48.812;11.762;2022-11-20T09:20:50;6.10;99.90
22161;DHT22;49035;48.812;11.762;2022-11-20T09:23:16;6.30;99.90
22161;DHT22;49035;48.812;11.762;2022-11-20T09:25:42;6.40;99.90
22161;DHT22;49035;48.812;11.762;2022-11-20T09:28:08;6.50;99.90
22161;DHT22;49035;48.812;11.762;2022-11-20T09:30:34;6.80;99.90
22161;DHT22;49035;48.812;11.762;2022-11-20T09:32:59;6.90;99.90
22161;DHT22;49035;48.812;11.762;2022-11-20T09:35:25;7.00;99.90
22161;DHT22;49035;48.812;11.762;2022-11-20T09:37:51;7.20;99.90
22161;DHT22;49035;48.812;11.762;2022-11-20T09:40:20;7.40;99.90
22161;DHT22;49035;48.812;11.762;2022-11-20T09:45:32;7.50;99.90
22161;DHT22;49035;48.812;11.762;2022-11-20T09:54:09;7.10;99.90
22161;DHT22;49035;48.812;11.762;2022-11-20T09:56:42;7.10;99.90
22161;DHT22;49035;48.812;11.762;2022-11-20T09:59:18;6.90;99.90
22161;DHT22;49035;48.812;11.762;2022-11-20T10:01:46;6.80;99.90
22161;DHT22;49035;48.812;11.762;2022-11-20T10:04:16;6.80;99.90
22161;DHT22;49035;48.812;11.762;2022-11-20T10:07:07;7.00;99.90
22161;DHT22;49035;48.812;11.762;2022-11-20T10:09:39;7.20;99.90
22161;DHT22;49035;48.812;11.762;2022-11-20T10:25:24;7.20;99.90
22161;DHT22;49035;48.812;11.762;2022-11-20T10:28:41;7.30;99.90
22161;DHT22;49035;48.812;11.762;2022-11-20T10:31:17;7.20;99.90
22161;DHT22;49035;48.812;11.762;2022-11-20T10:33:47;7.20;99.90
22161;DHT22;49035;48.812;11.762;2022-11-20T10:36:21;7.10;99.90
22161;DHT22;49035;48.812;11.762;2022-11-20T10:41:41;6.90;99.90
22161;DHT22;49035;48.812;11.762;2022-11-20T10:44:15;6.90;99.90
22161;DHT22;49035;48.812;11.762;2022-11-20T10:47:02;6.90;99.90
22161;DHT22;49035;48.812;11.762;2022-11-20T10:49:30;6.90;99.90
22161;DHT22;49035;48.812;11.762;2022-11-20T10:55:33;7.00;99.90
22161;DHT22;49035;48.812;11.762;2022-11-20T10:58:14;7.10;99.90
22161;DHT22;49035;48.812;11.762;2022-11-20T11:00:40;7.10;99.90
22161;DHT22;49035;48.812;11.762;2022-11-20T11:03:24;7.20;99.90
22161;DHT22;49035;48.812;11.762;2022-11-20T11:08:38;7.10;99.90
22161;DHT22;49035;48.812;11.762;2022-11-20T11:11:27;7.00;99.90
22161;DHT22;49035;48.812;11.762;2022-11-20T11:14:09;7.00;99.90
22161;DHT22;49035;48.812;11.762;2022-11-20T11:16:35;7.00;99.90
22161;DHT22;49035;48.812;11.762;2022-11-20T11:19:12;6.90;99.90
22161;DHT22;49035;48.812;11.762;2022-11-20T11:21:38;6.90;99.90
22161;DHT22;49035;48.812;11.762;2022-11-20T11:24:36;7.00;99.90
22161;DHT22;49035;48.812;11.762;2022-11-20T11:27:04;7.10;99.90
22161;DHT22;49035;48.812;11.762;2022-11-20T11:29:35;7.30;99.90
22161;DHT22;49035;48.812;11.762;2022-11-20T11:32:07;7.40;99.90
22161;DHT22;49035;48.812;11.762;2022-11-20T11:34:33;7.50;99.90
22161;DHT22;49035;48.812;11.762;2022-11-20T11:36:59;7.40;99.90
22161;DHT22;49035;48.812;11.762;2022-11-20T11:39:27;7.40;99.90
22161;DHT22;49035;48.812;11.762;2022-11-20T11:41:54;7.40;99.90
22161;DHT22;49035;48.812;11.762;2022-11-20T11:44:31;7.40;99.90
22161;DHT22;49035;48.812;11.762;2022-11-20T11:47:45;7.30;99.90
22161;DHT22;49035;48.812;11.762;2022-11-20T11:58:11;6.60;99.90
22161;DHT22;49035;48.812;11.762;2022-11-20T12:00:44;6.50;99.90
22161;DHT22;49035;48.812;11.762;2022-11-20T12:05:49;6.50;99.90
22161;DHT22;49035;48.812;11.762;2022-11-20T12:08:32;6.50;99.90
22161;DHT22;49035;48.812;11.762;2022-11-20T12:11:18;6.60;99.90
22161;DHT22;49035;48.812;11.762;2022-11-20T12:13:52;6.70;99.90
22161;DHT22;49035;48.812;11.762;2022-11-20T12:16:19;6.80;99.90
22161;DHT22;49035;48.812;11.762;2022-11-20T12:18:49;6.80;99.90
22161;DHT22;49035;48.812;11.762;2022-11-20T12:21:19;6.70;99.90
22161;DHT22;49035;48.812;11.762;2022-11-20T12:38:23;7.10;99.90
22161;DHT22;49035;48.812;11.762;2022-11-20T12:43:24;7.30;99.90
22161;DHT22;49035;48.812;11.762;2022-11-20T12:46:37;7.40;99.90
22161;DHT22;49035;48.812;11.762;2022-11-20T12:57:31;7.40;99.90
22161;DHT22;49035;48.812;11.762;2022-11-20T13:00:28;7.50;99.90
22161;DHT22;49035;48.812;11.762;2022-11-20T13:03:03;7.40;99.90
22161;DHT22;49035;48.812;11.762;2022-11-20T13:08:25;7.40;99.90
22161;DHT22;49035;48.812;11.762;2022-11-20T13:11:11;7.60;99.90
22161;DHT22;49035;48.812;11.762;2022-11-20T13:19:32;7.50;99.90
22161;DHT22;49035;48.812;11.762;2022-11-20T13:21:58;7.50;99.90
22161;DHT22;49035;48.812;11.762;2022-11-20T13:24:27;7.50;99.90
22161;DHT22;49035;48.812;11.762;2022-11-20T13:29:36;7.40;99.90
22161;DHT22;49035;48.812;11.762;2022-11-20T13:32:17;7.30;99.90
22161;DHT22;49035;48.812;11.762;2022-11-20T13:34:54;7.20;99.90
22161;DHT22;49035;48.812;11.762;2022-11-20T13:37:30;7.20;99.90
22161;DHT22;49035;48.812;11.762;2022-11-20T13:42:45;7.20;99.90
22161;DHT22;49035;48.812;11.762;2022-11-20T13:45:24;7.10;99.90
22161;DHT22;49035;48.812;11.762;2022-11-20T13:47:52;7.10;99.90
22161;DHT22;49035;48.812;11.762;2022-11-20T13:50:19;7.10;99.90
22161;DHT22;49035;48.812;11.762;2022-11-20T13:53:22;7.00;99.90
22161;DHT22;49035;48.812;11.762;2022-11-20T13:56:01;7.10;99.90
22161;DHT22;49035;48.812;11.762;2022-11-20T14:01:30;7.00;99.90
22161;DHT22;49035;48.812;11.762;2022-11-20T14:04:06;7.00;99.90
22161;DHT22;49035;48.812;11.762;2022-11-20T14:06:42;7.00;99.90
22161;DHT22;49035;48.812;11.762;2022-11-20T14:09:13;7.10;99.90
22161;DHT22;49035;48.812;11.762;2022-11-20T14:11:49;7.10;99.90
22161;DHT22;49035;48.812;11.762;2022-11-20T14:14:20;7.00;99.90
22161;DHT22;49035;48.812;11.762;2022-11-20T14:16:47;7.10;99.90
22161;DHT22;49035;48.812;11.762;2022-11-20T14:21:44;7.10;99.90
22161;DHT22;49035;48.812;11.762;2022-11-20T14:24:12;7.10;99.90
22161;DHT22;49035;48.812;11.762;2022-11-20T14:26:45;7.00;99.90
22161;DHT22;49035;48.812;11.762;2022-11-20T14:29:19;6.90;99.90
22161;DHT22;49035;48.812;11.762;2022-11-20T14:31:47;6.90;99.90
22161;DHT22;49035;48.812;11.762;2022-11-20T14:34:17;6.70;99.90
22161;DHT22;49035;48.812;11.762;2022-11-20T14:36:44;6.70;99.90
22161;DHT22;49035;48.812;11.762;2022-11-20T14:39:20;6.70;99.90
22161;DHT22;49035;48.812;11.762;2022-11-20T14:41:51;6.70;99.90
22161;DHT22;49035;48.812;11.762;2022-11-20T14:44:17;6.70;99.90
22161;DHT22;49035;48.812;11.762;2022-11-20T14:46:45;6.70;99.90
22161;DHT22;49035;48.812;11.762;2022-11-20T14:49:11;6.60;99.90
22161;DHT22;49035;48.812;11.762;2022-11-20T14:51:39;6.60;99.90
22161;DHT22;49035;48.812;11.762;2022-11-20T14:56:37;6.60;99.90
22161;DHT22;49035;48.812;11.762;2022-11-20T14:59:03;6.50;99.90
22161;DHT22;49035;48.812;11.762;2022-11-20T15:01:30;6.60;99.90
22161;DHT22;49035;48.812;11.762;2022-11-20T15:04:08;6.60;99.90
22161;DHT22;49035;48.812;11.762;2022-11-20T15:06:35;6.60;99.90
22161;DHT22;49035;48.812;11.762;2022-11-20T15:09:04;6.60;99.90
22161;DHT22;49035;48.812;11.762;2022-11-20T15:11:34;6.60;99.90
22161;DHT22;49035;48.812;11.762;2022-11-20T15:14:05;6.60;99.90
22161;DHT22;49035;48.812;11.762;2022-11-20T15:16:32;6.40;99.90
22161;DHT22;49035;48.812;11.762;2022-11-20T15:18:58;6.30;99.90
22161;DHT22;49035;48.812;11.762;2022-11-20T15:21:25;6.30;99.90
22161;DHT22;49035;48.812;11.762;2022-11-20T15:23:50;6.20;99.90
22161;DHT22;49035;48.812;11.762;2022-11-20T15:26:26;6.20;99.90
22161;DHT22;49035;48.812;11.762;2022-11-20T15:28:53;6.10;99.90
22161;DHT22;49035;48.812;11.762;2022-11-20T15:31:21;5.90;99.90
22161;DHT22;49035;48.812;11.762;2022-11-20T15:33:47;5.70;99.90
22161;DHT22;49035;48.812;11.762;2022-11-20T15:36:14;5.60;99.90
22161;DHT22;49035;48.812;11.762;2022-11-20T15:38:40;5.50;99.90
22161;DHT22;49035;48.812;11.762;2022-11-20T15:41:05;5.30;99.90
22161;DHT22;49035;48.812;11.762;2022-11-20T15:43:32;5.20;99.90
22161;DHT22;49035;48.812;11.762;2022-11-20T15:46:09;5.20;99.90
22161;DHT22;49035;48.812;11.762;2022-11-20T15:48:37;5.20;99.90
22161;DHT22;49035;48.812;11.762;2022-11-20T15:51:12;5.30;99.90
22161;DHT22;49035;48.812;11.762;2022-11-20T15:53:41;5.30;99.90
22161;DHT22;49035;48.812;11.762;2022-11-20T15:56:14;5.30;99.90
22161;DHT22;49035;48.812;11.762;2022-11-20T15:58:40;5.30;99.90
22161;DHT22;49035;48.812;11.762;2022-11-20T16:01:13;5.40;99.90
22161;DHT22;49035;48.812;11.762;2022-11-20T16:03:40;5.40;99.90
22161;DHT22;49035;48.812;11.762;2022-11-20T16:06:06;5.50;99.90
22161;DHT22;49035;48.812;11.762;2022-11-20T16:08:31;5.50;99.90
22161;DHT22;49035;48.812;11.762;2022-11-20T16:10:57;5.60;99.90
22161;DHT22;49035;48.812;11.762;2022-11-20T16:13:22;5.50;99.90
22161;DHT22;49035;48.812;11.762;2022-11-20T16:16:29;5.60;99.90
22161;DHT22;49035;48.812;11.762;2022-11-20T16:18:57;5.50;99.90
22161;DHT22;49035;48.812;11.762;2022-11-20T16:21:23;5.50;99.90
22161;DHT22;49035;48.812;11.762;2022-11-20T16:24:02;5.50;99.90
22161;DHT22;49035;48.812;11.762;2022-11-20T16:26:29;5.40;99.90
22161;DHT22;49035;48.812;11.762;2022-11-20T16:28:55;5.50;99.90
22161;DHT22;49035;48.812;11.762;2022-11-20T16:31:21;5.50;99.90
22161;DHT22;49035;48.812;11.762;2022-11-20T16:33:54;5.40;99.90
22161;DHT22;49035;48.812;11.762;2022-11-20T16:36:22;5.30;99.90
22161;DHT22;49035;48.812;11.762;2022-11-20T16:38:55;5.30;99.90
22161;DHT22;49035;48.812;11.762;2022-11-20T16:41:21;5.30;99.90
22161;DHT22;49035;48.812;11.762;2022-11-20T16:43:49;5.30;99.90
22161;DHT22;49035;48.812;11.762;2022-11-20T16:46:17;5.30;99.90
22161;DHT22;49035;48.812;11.762;2022-11-20T16:48:42;5.20;99.90
22161;DHT22;49035;48.812;11.762;2022-11-20T16:51:10;5.10;99.90
22161;DHT22;49035;48.812;11.762;2022-11-20T16:53:36;5.10;99.90
22161;DHT22;49035;48.812;11.762;2022-11-20T16:56:28;5.10;99.90
22161;DHT22;49035;48.812;11.762;2022-11-20T16:58:56;5.10;99.90
22161;DHT22;49035;48.812;11.762;2022-11-20T17:01:23;5.10;99.90
22161;DHT22;49035;48.812;11.762;2022-11-20T17:04:04;5.10;99.90
22161;DHT22;49035;48.812;11.762;2022-11-20T17:06:32;5.00;99.90
22161;DHT22;49035;48.812;11.762;2022-11-20T17:08:58;5.00;99.90
22161;DHT22;49035;48.812;11.762;2022-11-20T17:11:25;4.90;99.90
22161;DHT22;49035;48.812;11.762;2022-11-20T17:13:51;4.70;99.90